createdAt,value
2019-05-11T00:04:52.066Z,6.63
2019-05-11T00:09:58.645Z,6.03
2019-05-11T00:15:04.460Z,6.00
2019-05-11T00:20:10.172Z,6.63
2019-05-11T00:25:15.835Z,7.43
2019-05-11T00:30:21.434Z,6.73
2019-05-11T00:35:26.958Z,7.37
2019-05-11T00:40:32.425Z,7.30
2019-05-11T00:45:37.875Z,7.07
2019-05-11T00:50:43.293Z,7.53
2019-05-11T00:55:48.994Z,7.43
2019-05-11T01:00:55.386Z,9.30
2019-05-11T01:06:00.886Z,7.50
2019-05-11T01:11:06.487Z,8.23
2019-05-11T01:16:13.527Z,7.73
2019-05-11T01:21:19.245Z,6.63
2019-05-11T01:26:24.848Z,6.33
2019-05-11T01:31:32.406Z,6.43
2019-05-11T01:36:37.939Z,5.80
2019-05-11T01:41:43.402Z,6.17
2019-05-11T01:46:48.887Z,5.93
2019-05-11T01:51:54.324Z,6.07
2019-05-11T01:56:59.811Z,4.87
2019-05-11T02:02:05.420Z,4.47
2019-05-11T02:07:11.036Z,4.20
2019-05-11T02:12:16.447Z,3.23
2019-05-11T02:17:21.833Z,3.03
2019-05-11T02:22:27.248Z,3.10
2019-05-11T02:27:32.736Z,3.20
2019-05-11T02:32:38.261Z,3.37
2019-05-11T02:37:44.002Z,3.10
2019-05-11T02:42:49.426Z,3.87
2019-05-11T02:47:55.166Z,3.73
2019-05-11T02:53:02.351Z,4.30
2019-05-11T02:58:08.413Z,4.03
2019-05-11T03:03:14.229Z,4.67
2019-05-11T03:08:19.723Z,4.50
2019-05-11T03:13:25.034Z,4.60
2019-05-11T03:18:30.691Z,3.97
2019-05-11T03:23:36.070Z,4.10
2019-05-11T03:28:41.544Z,3.93
2019-05-11T03:33:47.022Z,4.77
2019-05-11T03:38:52.495Z,4.70
2019-05-11T03:43:57.914Z,4.07
2019-05-11T03:49:03.302Z,4.33
2019-05-11T03:54:08.712Z,3.60
2019-05-11T03:59:14.224Z,4.50
2019-05-11T04:04:19.625Z,3.90
2019-05-11T04:09:25.146Z,3.87
2019-05-11T04:14:30.512Z,4.10
2019-05-11T04:19:35.888Z,5.03
2019-05-11T04:24:41.325Z,4.40
2019-05-11T04:29:46.832Z,3.73
2019-05-11T04:34:52.251Z,5.20
2019-05-11T04:39:57.665Z,5.10
2019-05-11T04:45:03.091Z,4.27
2019-05-11T04:50:09.092Z,5.03
2019-05-11T04:55:14.777Z,4.87
2019-05-11T05:00:20.553Z,4.63
2019-05-11T05:05:25.990Z,4.43
2019-05-11T05:10:31.554Z,4.90
2019-05-11T05:15:37.067Z,4.90
2019-05-11T05:20:44.012Z,4.50
2019-05-11T05:25:49.667Z,4.70
2019-05-11T05:30:55.218Z,5.40
2019-05-11T05:36:00.804Z,5.27
2019-05-11T05:41:06.375Z,4.70
2019-05-11T05:46:12.043Z,4.70
2019-05-11T05:51:18.161Z,5.23
2019-05-11T05:56:23.683Z,5.00
2019-05-11T06:01:29.075Z,5.43
2019-05-11T06:06:34.541Z,4.83
2019-05-11T06:11:39.940Z,5.03
2019-05-11T06:16:45.474Z,5.40
2019-05-11T06:21:50.950Z,4.20
2019-05-11T06:26:56.434Z,4.70
2019-05-11T06:32:02.026Z,4.00
2019-05-11T06:37:07.427Z,5.53
2019-05-11T06:42:12.995Z,5.80
2019-05-11T06:47:18.415Z,4.30
2019-05-11T06:52:24.021Z,5.60
2019-05-11T06:57:29.428Z,7.70
2019-05-11T07:02:34.831Z,6.87
2019-05-11T07:07:47.462Z,10.10
2019-05-11T07:12:48.716Z,8.17
2019-05-11T07:17:54.156Z,9.13
2019-05-11T07:22:59.566Z,10.63
2019-05-11T07:28:05.153Z,15.53
2019-05-11T07:33:10.614Z,14.80
2019-05-11T07:38:18.359Z,11.23
2019-05-11T07:43:23.558Z,10.77
2019-05-11T07:48:28.981Z,9.50
2019-05-11T07:53:34.465Z,7.90
2019-05-11T07:58:39.911Z,8.85
2019-05-11T08:03:45.365Z,6.57
2019-05-11T08:08:50.775Z,6.53
2019-05-11T08:13:58.406Z,5.57
2019-05-11T08:19:06.932Z,3.90
2019-05-11T08:24:12.775Z,2.40
2019-05-11T08:29:18.630Z,2.73
2019-05-11T08:34:24.934Z,3.63
2019-05-11T08:39:30.686Z,2.60
2019-05-11T08:44:38.035Z,2.10
2019-05-11T08:49:43.148Z,1.60
2019-05-11T08:54:48.796Z,2.20
2019-05-11T08:59:54.464Z,2.30
2019-05-11T09:05:00.404Z,2.30
2019-05-11T09:10:08.076Z,1.70
2019-05-11T09:15:28.134Z,2.00
2019-05-11T09:20:21.002Z,2.00
2019-05-11T09:25:27.798Z,1.50
2019-05-11T09:30:33.324Z,2.07
2019-05-11T09:35:47.610Z,1.90
2019-05-11T09:40:48.007Z,2.43
2019-05-11T09:45:53.215Z,2.10
2019-05-11T09:50:58.899Z,1.80
2019-05-11T09:56:04.491Z,1.80
2019-05-11T10:01:10.239Z,1.70
2019-05-11T10:06:15.627Z,1.80
2019-05-11T10:11:21.013Z,1.83
2019-05-11T10:16:28.059Z,1.93
2019-05-11T10:21:33.725Z,1.80
2019-05-11T10:26:39.194Z,2.13
2019-05-11T10:31:44.687Z,1.67
2019-05-11T10:36:50.250Z,2.50
2019-05-11T10:41:58.098Z,2.00
2019-05-11T10:47:02.831Z,2.07
2019-05-11T10:52:09.805Z,2.00
2019-05-11T10:57:15.894Z,2.83
2019-05-11T11:02:23.296Z,2.47
2019-05-11T11:07:29.115Z,2.50
2019-05-11T11:12:34.647Z,2.97
2019-05-11T11:17:40.209Z,1.97
2019-05-11T11:22:47.833Z,2.03
2019-05-11T11:27:52.700Z,2.13
2019-05-11T11:32:58.768Z,1.90
2019-05-11T11:38:04.419Z,2.50
2019-05-11T11:43:09.998Z,2.43
2019-05-11T11:48:15.488Z,2.10
2019-05-11T11:53:21.132Z,2.00
2019-05-11T11:58:27.680Z,1.90
2019-05-11T12:03:33.256Z,2.60
2019-05-11T12:08:39.061Z,1.73
2019-05-11T12:13:44.572Z,2.20
2019-05-11T12:18:49.965Z,2.00
2019-05-11T12:23:55.416Z,4.00
2019-05-11T12:29:00.827Z,2.23
2019-05-11T12:34:08.571Z,2.33
2019-05-11T12:39:13.623Z,2.87
2019-05-11T12:44:19.533Z,2.33
2019-05-11T12:49:26.191Z,2.63
2019-05-11T12:54:34.013Z,2.80
2019-05-11T12:59:38.612Z,3.00
2019-05-11T13:04:44.122Z,3.17
2019-05-11T13:09:49.523Z,2.30
2019-05-11T13:14:55.091Z,2.53
2019-05-11T13:20:00.634Z,2.13
2019-05-11T13:25:08.376Z,3.10
2019-05-11T13:30:13.877Z,1.87
2019-05-11T13:35:19.437Z,3.10
2019-05-11T13:40:24.963Z,4.10
2019-05-11T13:45:30.516Z,2.47
2019-05-11T13:50:38.674Z,2.87
2019-05-11T13:55:43.926Z,2.50
2019-05-11T14:00:49.412Z,2.43
2019-05-11T14:05:55.014Z,2.40
2019-05-11T14:11:00.932Z,2.63
2019-05-11T14:16:07.978Z,2.40
2019-05-11T14:21:13.613Z,2.53
2019-05-11T14:26:19.395Z,2.70
2019-05-11T14:31:25.027Z,3.03
2019-05-11T14:36:30.552Z,2.80
2019-05-11T14:41:37.996Z,3.20
2019-05-11T14:46:43.553Z,3.13
2019-05-11T14:51:49.146Z,2.57
2019-05-11T14:56:54.961Z,3.23
2019-05-11T15:02:02.158Z,2.63
2019-05-11T15:07:08.496Z,3.07
2019-05-11T15:12:14.118Z,2.40
2019-05-11T15:17:19.582Z,2.83
2019-05-11T15:22:25.159Z,2.70
2019-05-11T15:27:30.678Z,2.90
2019-05-11T15:32:37.608Z,2.50
2019-05-11T15:37:48.842Z,2.83
2019-05-11T15:42:53.467Z,3.13
2019-05-11T15:48:03.902Z,2.97
2019-05-11T15:53:10.561Z,4.37
2019-05-11T15:58:19.072Z,3.10
2019-05-11T16:03:23.299Z,2.83
2019-05-11T16:08:28.723Z,2.80
2019-05-11T16:13:34.318Z,3.00
2019-05-11T16:18:39.790Z,2.83
2019-05-11T16:23:45.303Z,2.63
2019-05-11T16:28:50.805Z,2.90
2019-05-11T16:33:58.756Z,3.03
2019-05-11T16:39:05.139Z,2.87
2019-05-11T16:44:10.516Z,3.10
2019-05-11T16:49:26.172Z,2.80
2019-05-11T16:54:23.111Z,3.23
2019-05-11T16:59:29.139Z,3.30
2019-05-11T17:04:34.845Z,6.20
2019-05-11T17:09:40.415Z,3.00
2019-05-11T17:15:02.976Z,2.80
2019-05-11T17:20:08.941Z,3.50
2019-05-11T17:25:14.415Z,2.93
2019-05-11T17:30:20.581Z,3.17
2019-05-11T17:35:26.063Z,3.27
2019-05-11T17:40:33.505Z,2.53
2019-05-11T17:45:38.931Z,2.10
2019-05-11T17:50:44.367Z,3.07
2019-05-11T17:55:50.364Z,11.63
2019-05-11T18:00:58.851Z,3.23
2019-05-11T18:06:03.770Z,3.23
2019-05-11T18:11:09.161Z,3.30
2019-05-11T18:16:14.558Z,3.73
2019-05-11T18:21:19.955Z,3.63
2019-05-11T18:26:25.437Z,2.63
2019-05-11T18:31:30.978Z,3.17
2019-05-11T18:36:38.197Z,3.40
2019-05-11T18:41:43.853Z,3.80
2019-05-11T18:46:49.340Z,3.40
2019-05-11T18:51:54.744Z,3.27
2019-05-11T18:57:00.298Z,4.03
2019-05-11T19:02:08.214Z,3.53
2019-05-11T19:07:17.013Z,4.03
2019-05-11T19:12:21.557Z,3.60
2019-05-11T19:17:29.026Z,3.87
2019-05-11T19:22:34.288Z,3.67
2019-05-11T19:27:39.677Z,4.43
2019-05-11T19:32:45.062Z,3.90
2019-05-11T19:37:50.554Z,4.90
2019-05-11T19:42:59.070Z,4.10
2019-05-11T19:48:04.038Z,4.07
2019-05-11T19:53:09.471Z,6.70
2019-05-11T19:58:14.860Z,4.53
2019-05-11T20:03:20.244Z,3.77
2019-05-11T20:08:25.742Z,3.77
2019-05-11T20:13:31.232Z,4.70
2019-05-11T20:18:36.697Z,3.77
2019-05-11T20:23:42.187Z,8.13
2019-05-11T20:28:48.284Z,6.20
2019-05-11T20:33:53.934Z,4.60
2019-05-11T20:38:59.323Z,3.63
2019-05-11T20:44:05.053Z,3.37
2019-05-11T20:49:10.430Z,3.70
2019-05-11T20:54:17.678Z,3.10
2019-05-11T20:59:23.308Z,3.80
2019-05-11T21:04:29.220Z,2.87
2019-05-11T21:09:34.958Z,3.60
2019-05-11T21:14:40.510Z,3.17
2019-05-11T21:19:47.910Z,14.37
2019-05-11T21:24:53.369Z,3.63
2019-05-11T21:29:58.821Z,3.07
2019-05-11T21:35:04.483Z,3.43
2019-05-11T21:40:10.919Z,3.23
2019-05-11T21:45:18.198Z,4.03
2019-05-11T21:50:23.615Z,5.23
2019-05-11T21:55:29.375Z,4.17
2019-05-11T22:00:35.481Z,4.97
2019-05-11T22:59:32.124Z,4.20
2019-05-11T23:04:38.181Z,3.20
2019-05-11T23:09:43.693Z,2.83
2019-05-11T23:15:08.484Z,3.00
2019-05-11T23:20:14.000Z,2.87
2019-05-11T23:25:19.860Z,3.30
2019-05-11T23:30:25.391Z,2.83
2019-05-11T23:35:31.335Z,2.80
2019-05-11T23:40:37.962Z,3.90
2019-05-11T23:45:43.696Z,3.70
2019-05-11T23:50:49.127Z,3.20
2019-05-11T23:55:54.578Z,3.37
